sensor_id;sensor_type;location;lat;lon;timestamp;pressure;altitude;pressure_sealevel;temperature;humidity
64827;BME280;51265;53.972;12.286;2023-04-01T00:01:01;99029.09;;;6.06;100.00
64827;BME280;51265;53.972;12.286;2023-04-01T00:03:30;99045.00;;;6.04;100.00
64827;BME280;51265;53.972;12.286;2023-04-01T00:05:58;99036.50;;;6.05;100.00
64827;BME280;51265;53.972;12.286;2023-04-01T00:08:26;99035.69;;;6.05;100.00
64827;BME280;51265;53.972;12.286;2023-04-01T00:10:53;99034.88;;;6.04;100.00
64827;BME280;51265;53.972;12.286;2023-04-01T00:13:20;99035.28;;;5.97;100.00
64827;BME280;51265;53.972;12.286;2023-04-01T00:15:47;99038.94;;;5.79;100.00
64827;BME280;51265;53.972;12.286;2023-04-01T00:18:14;99042.19;;;5.81;100.00
64827;BME280;51265;53.972;12.286;2023-04-01T00:20:48;99049.28;;;5.82;100.00
64827;BME280;51265;53.972;12.286;2023-04-01T00:23:15;99047.25;;;5.74;100.00
64827;BME280;51265;53.972;12.286;2023-04-01T00:25:43;99050.09;;;5.69;100.00
64827;BME280;51265;53.972;12.286;2023-04-01T00:28:10;99046.72;;;5.72;100.00
64827;BME280;51265;53.972;12.286;2023-04-01T00:30:37;99049.38;;;5.77;100.00
64827;BME280;51265;53.972;12.286;2023-04-01T00:33:04;99049.28;;;5.82;100.00
64827;BME280;51265;53.972;12.286;2023-04-01T00:35:31;99052.50;;;5.84;100.00
64827;BME280;51265;53.972;12.286;2023-04-01T00:37:58;99049.16;;;5.87;100.00
64827;BME280;51265;53.972;12.286;2023-04-01T00:40:29;99044.63;;;5.69;100.00
64827;BME280;51265;53.972;12.286;2023-04-01T00:42:57;99042.63;;;5.61;100.00
64827;BME280;51265;53.972;12.286;2023-04-01T00:47:50;99049.69;;;5.62;100.00
64827;BME280;51265;53.972;12.286;2023-04-01T00:50:17;99054.13;;;5.58;100.00
64827;BME280;51265;53.972;12.286;2023-04-01T00:52:44;99060.81;;;5.52;100.00
64827;BME280;51265;53.972;12.286;2023-04-01T00:55:11;99059.41;;;5.54;100.00
64827;BME280;51265;53.972;12.286;2023-04-01T00:57:42;99066.25;;;5.52;100.00
64827;BME280;51265;53.972;12.286;2023-04-01T01:00:11;99063.53;;;5.52;100.00
64827;BME280;51265;53.972;12.286;2023-04-01T01:02:42;99064.66;;;5.50;100.00
64827;BME280;51265;53.972;12.286;2023-04-01T01:05:13;99070.72;;;5.47;100.00
64827;BME280;51265;53.972;12.286;2023-04-01T01:07:56;99073.75;;;5.46;100.00
64827;BME280;51265;53.972;12.286;2023-04-01T01:10:33;99068.28;;;5.46;100.00
64827;BME280;51265;53.972;12.286;2023-04-01T01:13:13;99066.09;;;5.48;100.00
64827;BME280;51265;53.972;12.286;2023-04-01T01:15:52;99071.34;;;5.44;100.00
64827;BME280;51265;53.972;12.286;2023-04-01T01:32:10;99080.81;;;5.33;100.00
64827;BME280;51265;53.972;12.286;2023-04-01T01:35:16;99083.88;;;5.32;100.00
64827;BME280;51265;53.972;12.286;2023-04-01T01:37:41;99084.16;;;5.30;100.00
64827;BME280;51265;53.972;12.286;2023-04-01T01:40:11;99096.00;;;5.39;100.00
64827;BME280;51265;53.972;12.286;2023-04-01T01:42:43;99097.53;;;5.45;100.00
64827;BME280;51265;53.972;12.286;2023-04-01T01:45:14;99090.03;;;5.37;100.00
64827;BME280;51265;53.972;12.286;2023-04-01T01:47:46;99092.88;;;5.32;100.00
64827;BME280;51265;53.972;12.286;2023-04-01T01:50:15;99090.94;;;5.19;100.00
64827;BME280;51265;53.972;12.286;2023-04-01T01:52:42;99105.47;;;5.14;100.00
64827;BME280;51265;53.972;12.286;2023-04-01T01:57:59;99097.75;;;5.03;100.00
64827;BME280;51265;53.972;12.286;2023-04-01T02:00:27;99098.34;;;4.99;100.00
64827;BME280;51265;53.972;12.286;2023-04-01T02:02:54;99095.53;;;5.05;100.00
64827;BME280;51265;53.972;12.286;2023-04-01T02:05:24;99095.97;;;5.12;100.00
64827;BME280;51265;53.972;12.286;2023-04-01T02:08:07;99105.97;;;5.16;100.00
64827;BME280;51265;53.972;12.286;2023-04-01T02:10:40;99099.00;;;5.10;100.00
64827;BME280;51265;53.972;12.286;2023-04-01T02:13:18;99090.88;;;5.05;100.00
64827;BME280;51265;53.972;12.286;2023-04-01T02:15:49;99094.22;;;5.02;100.00
64827;BME280;51265;53.972;12.286;2023-04-01T02:18:18;99097.13;;;5.06;100.00
64827;BME280;51265;53.972;12.286;2023-04-01T02:20:46;99094.25;;;4.83;100.00
64827;BME280;51265;53.972;12.286;2023-04-01T02:23:13;99098.69;;;4.79;100.00
64827;BME280;51265;53.972;12.286;2023-04-01T02:25:41;99104.00;;;4.89;100.00
64827;BME280;51265;53.972;12.286;2023-04-01T02:28:09;99109.81;;;4.83;100.00
64827;BME280;51265;53.972;12.286;2023-04-01T02:30:38;99108.41;;;4.85;100.00
64827;BME280;51265;53.972;12.286;2023-04-01T02:33:07;99110.63;;;4.83;100.00
64827;BME280;51265;53.972;12.286;2023-04-01T02:35:35;99107.41;;;4.81;100.00
64827;BME280;51265;53.972;12.286;2023-04-01T02:38:04;99118.72;;;4.88;100.00
64827;BME280;51265;53.972;12.286;2023-04-01T02:40:48;99117.09;;;4.87;100.00
64827;BME280;51265;53.972;12.286;2023-04-01T02:43:16;99118.09;;;4.78;100.00
64827;BME280;51265;53.972;12.286;2023-04-01T02:45:43;99122.34;;;4.84;100.00
64827;BME280;51265;53.972;12.286;2023-04-01T02:48:09;99120.94;;;4.86;100.00
64827;BME280;51265;53.972;12.286;2023-04-01T02:50:36;99119.47;;;4.75;100.00
64827;BME280;51265;53.972;12.286;2023-04-01T02:53:02;99124.78;;;4.85;100.00
64827;BME280;51265;53.972;12.286;2023-04-01T02:55:30;99128.78;;;4.74;100.00
64827;BME280;51265;53.972;12.286;2023-04-01T02:57:57;99137.47;;;4.76;100.00
64827;BME280;51265;53.972;12.286;2023-04-01T03:00:23;99135.25;;;4.78;100.00
64827;BME280;51265;53.972;12.286;2023-04-01T03:02:50;99143.94;;;4.80;100.00
64827;BME280;51265;53.972;12.286;2023-04-01T03:05:16;99155.28;;;4.87;100.00
64827;BME280;51265;53.972;12.286;2023-04-01T03:07:43;99148.00;;;4.83;100.00
64827;BME280;51265;53.972;12.286;2023-04-01T03:10:10;99137.91;;;4.83;100.00
64827;BME280;51265;53.972;12.286;2023-04-01T03:12:36;99144.03;;;4.75;100.00
64827;BME280;51265;53.972;12.286;2023-04-01T03:15:03;99144.09;;;4.70;100.00
64827;BME280;51265;53.972;12.286;2023-04-01T03:17:29;99146.31;;;4.68;100.00
64827;BME280;51265;53.972;12.286;2023-04-01T03:19:56;99146.31;;;4.68;100.00
64827;BME280;51265;53.972;12.286;2023-04-01T03:22:22;99156.63;;;4.71;100.00
64827;BME280;51265;53.972;12.286;2023-04-01T03:24:49;99154.00;;;4.66;100.00
64827;BME280;51265;53.972;12.286;2023-04-01T03:27:15;99150.22;;;4.62;100.00
64827;BME280;51265;53.972;12.286;2023-04-01T03:29:42;99162.03;;;4.57;100.00
64827;BME280;51265;53.972;12.286;2023-04-01T03:32:09;99163.56;;;4.63;100.00
64827;BME280;51265;53.972;12.286;2023-04-01T03:34:35;99167.41;;;4.62;100.00
64827;BME280;51265;53.972;12.286;2023-04-01T03:37:01;99177.50;;;4.62;100.00
64827;BME280;51265;53.972;12.286;2023-04-01T03:39:28;99179.78;;;4.55;100.00
64827;BME280;51265;53.972;12.286;2023-04-01T03:41:55;99178.53;;;4.66;100.00
64827;BME280;51265;53.972;12.286;2023-04-01T03:44:22;99181.84;;;4.63;100.00
64827;BME280;51265;53.972;12.286;2023-04-01T03:46:51;99184.94;;;4.75;100.00
64827;BME280;51265;53.972;12.286;2023-04-01T03:49:18;99188.31;;;4.67;100.00
64827;BME280;51265;53.972;12.286;2023-04-01T03:51:45;99195.47;;;4.63;100.00
64827;BME280;51265;53.972;12.286;2023-04-01T03:54:11;99200.34;;;4.66;100.00
64827;BME280;51265;53.972;12.286;2023-04-01T03:56:38;99184.50;;;4.68;100.00
64827;BME280;51265;53.972;12.286;2023-04-01T03:59:06;99191.34;;;4.65;100.00
64827;BME280;51265;53.972;12.286;2023-04-01T04:01:33;99173.75;;;4.58;100.00
64827;BME280;51265;53.972;12.286;2023-04-01T04:04:00;99190.56;;;4.65;100.00
64827;BME280;51265;53.972;12.286;2023-04-01T04:06:27;99194.00;;;4.70;100.00
64827;BME280;51265;53.972;12.286;2023-04-01T04:08:54;99203.22;;;4.74;100.00
64827;BME280;51265;53.972;12.286;2023-04-01T04:11:21;99201.59;;;4.73;100.00
64827;BME280;51265;53.972;12.286;2023-04-01T04:13:51;99207.34;;;4.72;100.00
64827;BME280;51265;53.972;12.286;2023-04-01T04:16:18;99207.78;;;4.79;100.00
64827;BME280;51265;53.972;12.286;2023-04-01T04:18:50;99205.06;;;4.79;100.00
64827;BME280;51265;53.972;12.286;2023-04-01T04:21:17;99207.94;;;4.69;100.00
64827;BME280;51265;53.972;12.286;2023-04-01T04:23:44;99203.66;;;4.63;100.00
64827;BME280;51265;53.972;12.286;2023-04-01T04:26:14;99197.78;;;4.56;100.00
64827;BME280;51265;53.972;12.286;2023-04-01T04:28:41;99204.25;;;4.60;100.00
64827;BME280;51265;53.972;12.286;2023-04-01T04:31:08;99208.81;;;4.45;100.00
64827;BME280;51265;53.972;12.286;2023-04-01T04:33:36;99217.81;;;4.65;100.00
64827;BME280;51265;53.972;12.286;2023-04-01T04:36:04;99215.53;;;4.53;100.00
64827;BME280;51265;53.972;12.286;2023-04-01T04:38:30;99219.28;;;4.57;100.00
64827;BME280;51265;53.972;12.286;2023-04-01T04:40:57;99223.63;;;4.58;100.00
64827;BME280;51265;53.972;12.286;2023-04-01T04:43:24;99228.50;;;4.61;100.00
64827;BME280;51265;53.972;12.286;2023-04-01T04:45:51;99233.56;;;4.68;100.00
64827;BME280;51265;53.972;12.286;2023-04-01T04:48:17;99239.50;;;4.75;100.00
64827;BME280;51265;53.972;12.286;2023-04-01T04:50:48;99244.50;;;4.68;100.00
64827;BME280;51265;53.972;12.286;2023-04-01T04:53:17;99228.13;;;4.68;100.00
64827;BME280;51265;53.972;12.286;2023-04-01T04:55:49;99241.41;;;4.74;100.00
64827;BME280;51265;53.972;12.286;2023-04-01T04:58:33;99246.56;;;4.76;100.00
64827;BME280;51265;53.972;12.286;2023-04-01T05:01:09;99238.91;;;4.78;100.00
64827;BME280;51265;53.972;12.286;2023-04-01T05:03:37;99252.25;;;4.80;100.00
64827;BME280;51265;53.972;12.286;2023-04-01T05:06:05;99246.28;;;4.78;100.00
64827;BME280;51265;53.972;12.286;2023-04-01T05:08:32;99238.53;;;4.66;100.00
64827;BME280;51265;53.972;12.286;2023-04-01T05:10:59;99251.94;;;4.62;100.00
64827;BME280;51265;53.972;12.286;2023-04-01T05:13:27;99261.97;;;4.67;100.00
64827;BME280;51265;53.972;12.286;2023-04-01T05:15:54;99255.53;;;4.58;100.00
64827;BME280;51265;53.972;12.286;2023-04-01T05:18:22;99262.19;;;4.52;100.00
64827;BME280;51265;53.972;12.286;2023-04-01T05:20:50;99257.31;;;4.48;100.00
64827;BME280;51265;53.972;12.286;2023-04-01T05:23:19;99255.22;;;4.40;100.00
64827;BME280;51265;53.972;12.286;2023-04-01T05:25:48;99266.13;;;4.40;100.00
64827;BME280;51265;53.972;12.286;2023-04-01T05:28:15;99269.34;;;4.42;100.00
64827;BME280;51265;53.972;12.286;2023-04-01T05:30:44;99277.28;;;4.39;100.00
64827;BME280;51265;53.972;12.286;2023-04-01T05:33:21;99284.72;;;4.33;100.00
64827;BME280;51265;53.972;12.286;2023-04-01T05:35:48;99283.63;;;4.34;100.00
64827;BME280;51265;53.972;12.286;2023-04-01T05:38:14;99296.03;;;4.45;100.00
64827;BME280;51265;53.972;12.286;2023-04-01T05:40:41;99295.47;;;4.48;100.00
64827;BME280;51265;53.972;12.286;2023-04-01T05:43:07;99296.03;;;4.45;100.00
64827;BME280;51265;53.972;12.286;2023-04-01T05:45:34;99302.06;;;4.42;100.00
64827;BME280;51265;53.972;12.286;2023-04-01T05:48:19;99304.75;;;4.47;100.00
64827;BME280;51265;53.972;12.286;2023-04-01T05:50:46;99310.16;;;4.53;100.00
64827;BME280;51265;53.972;12.286;2023-04-01T05:53:12;99312.31;;;4.56;100.00
64827;BME280;51265;53.972;12.286;2023-04-01T05:55:42;99317.28;;;4.48;100.00
64827;BME280;51265;53.972;12.286;2023-04-01T05:58:08;99318.91;;;4.49;100.00
64827;BME280;51265;53.972;12.286;2023-04-01T06:00:37;99327.00;;;4.55;100.00
64827;BME280;51265;53.972;12.286;2023-04-01T06:03:04;99319.59;;;4.60;100.00
64827;BME280;51265;53.972;12.286;2023-04-01T06:05:39;99321.28;;;4.56;100.00
64827;BME280;51265;53.972;12.286;2023-04-01T06:08:12;99325.97;;;4.50;100.00
64827;BME280;51265;53.972;12.286;2023-04-01T06:10:51;99337.34;;;4.58;100.00
64827;BME280;51265;53.972;12.286;2023-04-01T06:44:24;99363.16;;;4.65;100.00
64827;BME280;51265;53.972;12.286;2023-04-01T06:50:48;99361.75;;;4.68;100.00
64827;BME280;51265;53.972;12.286;2023-04-01T06:54:03;99366.22;;;4.59;100.00
64827;BME280;51265;53.972;12.286;2023-04-01T06:59:41;99380.00;;;4.72;100.00
64827;BME280;51265;53.972;12.286;2023-04-01T07:04:57;99388.28;;;4.86;100.00
64827;BME280;51265;53.972;12.286;2023-04-01T07:07:43;99390.03;;;4.77;100.00
64827;BME280;51265;53.972;12.286;2023-04-01T07:13:27;99395.38;;;4.87;100.00
64827;BME280;51265;53.972;12.286;2023-04-01T07:16:18;99401.28;;;4.70;100.00
64827;BME280;51265;53.972;12.286;2023-04-01T07:21:52;99406.09;;;4.55;100.00
64827;BME280;51265;53.972;12.286;2023-04-01T07:27:11;99413.75;;;4.53;100.00
64827;BME280;51265;53.972;12.286;2023-04-01T07:29:39;99407.50;;;4.52;100.00
64827;BME280;51265;53.972;12.286;2023-04-01T07:34:52;99427.81;;;4.65;100.00
64827;BME280;51265;53.972;12.286;2023-04-01T07:40:18;99434.34;;;4.64;100.00
64827;BME280;51265;53.972;12.286;2023-04-01T07:48:39;99442.91;;;4.81;100.00
64827;BME280;51265;53.972;12.286;2023-04-01T07:51:20;99451.31;;;4.85;100.00
64827;BME280;51265;53.972;12.286;2023-04-01T07:57:08;99454.50;;;4.68;100.00
64827;BME280;51265;53.972;12.286;2023-04-01T08:17:05;99487.94;;;4.49;100.00
64827;BME280;51265;53.972;12.286;2023-04-01T08:22:40;99505.38;;;4.54;100.00
64827;BME280;51265;53.972;12.286;2023-04-01T08:25:25;99499.66;;;4.50;100.00
64827;BME280;51265;53.972;12.286;2023-04-01T08:28:00;99503.81;;;4.42;100.00
64827;BME280;51265;53.972;12.286;2023-04-01T08:30:43;99512.59;;;4.34;100.00
64827;BME280;51265;53.972;12.286;2023-04-01T08:33:21;99523.94;;;4.52;100.00
64827;BME280;51265;53.972;12.286;2023-04-01T08:36:23;99529.41;;;4.46;100.00
64827;BME280;51265;53.972;12.286;2023-04-01T08:39:09;99526.44;;;4.43;100.00
64827;BME280;51265;53.972;12.286;2023-04-01T08:53:03;99538.31;;;4.23;100.00
64827;BME280;51265;53.972;12.286;2023-04-01T09:01:18;99543.78;;;4.23;100.00
64827;BME280;51265;53.972;12.286;2023-04-01T09:10:03;99556.84;;;4.21;100.00
64827;BME280;51265;53.972;12.286;2023-04-01T09:26:08;99578.88;;;4.35;100.00
64827;BME280;51265;53.972;12.286;2023-04-01T09:29:11;99582.41;;;4.30;100.00
64827;BME280;51265;53.972;12.286;2023-04-01T09:31:49;99586.41;;;4.43;100.00
64827;BME280;51265;53.972;12.286;2023-04-01T09:34:55;99590.50;;;4.45;100.00
64827;BME280;51265;53.972;12.286;2023-04-01T09:37:52;99586.25;;;4.29;100.00
64827;BME280;51265;53.972;12.286;2023-04-01T09:44:01;99600.09;;;4.38;100.00
64827;BME280;51265;53.972;12.286;2023-04-01T09:52:25;99600.97;;;4.28;100.00
64827;BME280;51265;53.972;12.286;2023-04-01T10:01:46;99621.19;;;4.17;100.00
64827;BME280;51265;53.972;12.286;2023-04-01T10:15:34;99633.97;;;4.21;100.00
64827;BME280;51265;53.972;12.286;2023-04-01T10:21:24;99641.22;;;4.41;100.00
64827;BME280;51265;53.972;12.286;2023-04-01T10:27:09;99645.03;;;4.45;100.00
64827;BME280;51265;53.972;12.286;2023-04-01T10:30:05;99640.69;;;4.44;100.00
64827;BME280;51265;53.972;12.286;2023-04-01T10:52:22;99654.56;;;4.48;100.00
64827;BME280;51265;53.972;12.286;2023-04-01T11:09:01;99667.78;;;4.70;100.00
64827;BME280;51265;53.972;12.286;2023-04-01T11:26:06;99656.03;;;4.74;100.00
64827;BME280;51265;53.972;12.286;2023-04-01T11:29:31;99651.94;;;4.72;100.00
64827;BME280;51265;53.972;12.286;2023-04-01T11:32:29;99659.81;;;4.79;100.00
64827;BME280;51265;53.972;12.286;2023-04-01T11:44:26;99661.22;;;5.10;100.00
64827;BME280;51265;53.972;12.286;2023-04-01T11:48:00;99657.34;;;4.82;100.00
64827;BME280;51265;53.972;12.286;2023-04-01T12:07:22;99674.81;;;5.15;100.00
64827;BME280;51265;53.972;12.286;2023-04-01T12:10:21;99677.91;;;5.04;100.00
64827;BME280;51265;53.972;12.286;2023-04-01T12:15:36;99685.47;;;5.12;100.00
64827;BME280;51265;53.972;12.286;2023-04-01T12:53:10;99701.88;;;4.67;100.00
64827;BME280;51265;53.972;12.286;2023-04-01T12:55:45;99702.38;;;4.74;100.00
64827;BME280;51265;53.972;12.286;2023-04-01T13:01:39;99694.91;;;4.46;100.00
64827;BME280;51265;53.972;12.286;2023-04-01T13:07:13;99731.97;;;4.96;100.00
64827;BME280;51265;53.972;12.286;2023-04-01T13:13:06;99737.84;;;5.14;100.00
64827;BME280;51265;53.972;12.286;2023-04-01T13:30:30;99732.09;;;4.76;100.00
64827;BME280;51265;53.972;12.286;2023-04-01T13:43:51;99749.63;;;4.70;100.00
64827;BME280;51265;53.972;12.286;2023-04-01T14:12:46;99757.41;;;4.37;100.00
64827;BME280;51265;53.972;12.286;2023-04-01T14:15:25;99753.63;;;4.18;100.00
64827;BME280;51265;53.972;12.286;2023-04-01T14:23:51;99762.69;;;4.03;100.00
64827;BME280;51265;53.972;12.286;2023-04-01T14:26:34;99768.97;;;3.98;100.00
64827;BME280;51265;53.972;12.286;2023-04-01T14:29:59;99791.78;;;4.18;100.00
64827;BME280;51265;53.972;12.286;2023-04-01T14:35:06;99795.06;;;4.25;100.00
64827;BME280;51265;53.972;12.286;2023-04-01T14:46:45;99781.41;;;4.30;100.00
64827;BME280;51265;53.972;12.286;2023-04-01T14:49:22;99781.72;;;4.18;100.00
64827;BME280;51265;53.972;12.286;2023-04-01T14:51:52;99773.31;;;4.05;100.00
64827;BME280;51265;53.972;12.286;2023-04-01T14:54:32;99783.69;;;4.03;100.00
64827;BME280;51265;53.972;12.286;2023-04-01T14:57:23;99788.31;;;4.02;100.00
64827;BME280;51265;53.972;12.286;2023-04-01T15:03:06;99790.47;;;4.00;100.00
64827;BME280;51265;53.972;12.286;2023-04-01T15:08:15;99797.63;;;3.81;100.00
64827;BME280;51265;53.972;12.286;2023-04-01T15:16:29;99788.63;;;3.65;100.00
64827;BME280;51265;53.972;12.286;2023-04-01T15:25:41;99813.13;;;3.80;100.00
64827;BME280;51265;53.972;12.286;2023-04-01T15:28:42;99833.25;;;3.99;100.00
64827;BME280;51265;53.972;12.286;2023-04-01T15:34:11;99828.34;;;3.96;100.00
64827;BME280;51265;53.972;12.286;2023-04-01T15:36:55;99834.88;;;4.00;100.00
64827;BME280;51265;53.972;12.286;2023-04-01T15:45:16;99824.56;;;3.67;100.00
64827;BME280;51265;53.972;12.286;2023-04-01T15:48:19;99836.00;;;3.79;100.00
64827;BME280;51265;53.972;12.286;2023-04-01T15:51:31;99818.56;;;3.70;100.00
64827;BME280;51265;53.972;12.286;2023-04-01T15:54:24;99838.72;;;3.84;100.00
64827;BME280;51265;53.972;12.286;2023-04-01T16:04:57;99816.66;;;3.45;100.00
64827;BME280;51265;53.972;12.286;2023-04-01T16:21:08;99845.25;;;3.53;100.00
64827;BME280;51265;53.972;12.286;2023-04-01T16:23:56;99840.06;;;3.51;100.00
64827;BME280;51265;53.972;12.286;2023-04-01T16:26:39;99852.34;;;3.74;100.00
64827;BME280;51265;53.972;12.286;2023-04-01T16:34:36;99816.13;;;3.43;100.00
64827;BME280;51265;53.972;12.286;2023-04-01T16:37:15;99825.66;;;3.40;100.00
64827;BME280;51265;53.972;12.286;2023-04-01T16:39:52;99817.50;;;3.35;100.00
64827;BME280;51265;53.972;12.286;2023-04-01T16:45:16;99851.00;;;3.56;100.00
64827;BME280;51265;53.972;12.286;2023-04-01T16:48:13;99866.75;;;3.59;100.00
64827;BME280;51265;53.972;12.286;2023-04-01T16:58:34;99833.25;;;3.18;100.00
64827;BME280;51265;53.972;12.286;2023-04-01T17:01:16;99808.16;;;2.90;100.00
64827;BME280;51265;53.972;12.286;2023-04-01T17:03:57;99813.28;;;2.82;100.00
64827;BME280;51265;53.972;12.286;2023-04-01T17:06:38;99815.16;;;2.71;100.00
64827;BME280;51265;53.972;12.286;2023-04-01T17:23:10;99882.09;;;2.87;100.00
64827;BME280;51265;53.972;12.286;2023-04-01T17:25:51;99904.16;;;2.91;100.00
64827;BME280;51265;53.972;12.286;2023-04-01T17:37:22;99947.47;;;3.08;100.00
64827;BME280;51265;53.972;12.286;2023-04-01T17:40:12;99949.09;;;3.09;100.00
64827;BME280;51265;53.972;12.286;2023-04-01T17:45:54;99975.28;;;3.20;100.00
64827;BME280;51265;53.972;12.286;2023-04-01T17:48:43;99974.75;;;3.18;100.00
64827;BME280;51265;53.972;12.286;2023-04-01T17:51:34;99947.16;;;2.94;100.00
64827;BME280;51265;53.972;12.286;2023-04-01T17:54:28;99946.28;;;2.83;100.00
64827;BME280;51265;53.972;12.286;2023-04-01T17:57:39;99947.34;;;2.77;100.00
64827;BME280;51265;53.972;12.286;2023-04-01T18:03:00;99923.59;;;2.62;100.00
64827;BME280;51265;53.972;12.286;2023-04-01T18:13:25;99892.09;;;2.24;100.00
64827;BME280;51265;53.972;12.286;2023-04-01T18:16:17;99900.84;;;2.31;100.00
64827;BME280;51265;53.972;12.286;2023-04-01T18:21:47;99946.09;;;2.47;100.00
64827;BME280;51265;53.972;12.286;2023-04-01T18:26:59;99935.44;;;2.46;100.00
64827;BME280;51265;53.972;12.286;2023-04-01T18:30:07;99928.63;;;2.38;100.00
64827;BME280;51265;53.972;12.286;2023-04-01T18:32:46;99916.84;;;2.28;100.00
64827;BME280;51265;53.972;12.286;2023-04-01T18:43:40;99992.91;;;2.60;100.00
64827;BME280;51265;53.972;12.286;2023-04-01T18:52:10;100021.66;;;2.50;100.00
64827;BME280;51265;53.972;12.286;2023-04-01T18:54:49;100022.19;;;2.47;100.00
64827;BME280;51265;53.972;12.286;2023-04-01T18:57:19;100005.53;;;2.39;100.00
64827;BME280;51265;53.972;12.286;2023-04-01T19:00:24;100004.50;;;2.45;100.00
64827;BME280;51265;53.972;12.286;2023-04-01T19:03:07;100013.50;;;2.50;100.00
64827;BME280;51265;53.972;12.286;2023-04-01T19:05:39;99995.50;;;2.39;100.00
64827;BME280;51265;53.972;12.286;2023-04-01T19:13:40;100009.56;;;2.31;100.00
64827;BME280;51265;53.972;12.286;2023-04-01T19:19:05;100020.41;;;2.31;100.00
64827;BME280;51265;53.972;12.286;2023-04-01T19:27:18;100044.91;;;2.36;100.00
64827;BME280;51265;53.972;12.286;2023-04-01T19:35:44;100036.03;;;2.14;100.00
64827;BME280;51265;53.972;12.286;2023-04-01T19:43:49;100056.53;;;1.99;100.00
64827;BME280;51265;53.972;12.286;2023-04-01T19:46:28;100069.63;;;2.08;100.00
64827;BME280;51265;53.972;12.286;2023-04-01T19:54:45;100081.59;;;2.07;100.00
64827;BME280;51265;53.972;12.286;2023-04-01T20:05:26;100097.25;;;1.99;100.00
64827;BME280;51265;53.972;12.286;2023-04-01T20:08:04;100095.00;;;1.91;100.00
64827;BME280;51265;53.972;12.286;2023-04-01T20:16:09;100096.25;;;1.84;100.00
64827;BME280;51265;53.972;12.286;2023-04-01T20:18:48;100078.34;;;1.61;100.00
64827;BME280;51265;53.972;12.286;2023-04-01T20:21:42;100100.13;;;1.66;100.00
64827;BME280;51265;53.972;12.286;2023-04-01T20:24:29;100107.72;;;1.64;100.00
64827;BME280;51265;53.972;12.286;2023-04-01T20:36:20;100120.72;;;1.62;100.00
64827;BME280;51265;53.972;12.286;2023-04-01T20:39:03;100117.94;;;1.57;100.00
64827;BME280;51265;53.972;12.286;2023-04-01T20:44:36;100104.69;;;1.38;100.00
64827;BME280;51265;53.972;12.286;2023-04-01T20:50:28;100125.97;;;1.46;100.00
64827;BME280;51265;53.972;12.286;2023-04-01T20:52:57;100132.44;;;1.45;100.00
64827;BME280;51265;53.972;12.286;2023-04-01T20:58:34;100148.34;;;1.59;100.00
64827;BME280;51265;53.972;12.286;2023-04-01T21:23:19;100158.94;;;1.38;100.00
64827;BME280;51265;53.972;12.286;2023-04-01T21:26:00;100169.88;;;1.43;100.00
64827;BME280;51265;53.972;12.286;2023-04-01T21:28:39;100182.41;;;1.49;100.00
64827;BME280;51265;53.972;12.286;2023-04-01T21:31:22;100172.00;;;1.41;100.00
64827;BME280;51265;53.972;12.286;2023-04-01T21:36:48;100188.53;;;1.40;100.00
64827;BME280;51265;53.972;12.286;2023-04-01T22:09:21;100205.81;;;1.51;100.00
64827;BME280;51265;53.972;12.286;2023-04-01T22:12:04;100184.94;;;1.34;100.00
64827;BME280;51265;53.972;12.286;2023-04-01T22:17:51;100194.13;;;1.33;100.00
64827;BME280;51265;53.972;12.286;2023-04-01T22:20:54;100214.38;;;1.42;100.00
64827;BME280;51265;53.972;12.286;2023-04-01T22:31:34;100208.59;;;1.39;100.00
64827;BME280;51265;53.972;12.286;2023-04-01T22:34:37;100217.06;;;1.42;100.00
64827;BME280;51265;53.972;12.286;2023-04-01T22:39:55;100218.13;;;1.41;100.00
64827;BME280;51265;53.972;12.286;2023-04-01T22:47:53;100199.22;;;1.13;100.00
64827;BME280;51265;53.972;12.286;2023-04-01T22:50:50;100217.66;;;1.11;100.00
64827;BME280;51265;53.972;12.286;2023-04-01T22:56:07;100232.94;;;1.17;100.00
64827;BME280;51265;53.972;12.286;2023-04-01T22:58:41;100230.13;;;1.12;100.00
64827;BME280;51265;53.972;12.286;2023-04-01T23:01:15;100236.63;;;1.11;100.00
64827;BME280;51265;53.972;12.286;2023-04-01T23:03:43;100227.94;;;1.09;100.00
64827;BME280;51265;53.972;12.286;2023-04-01T23:06:19;100237.03;;;1.03;100.00
64827;BME280;51265;53.972;12.286;2023-04-01T23:09:07;100245.78;;;1.05;100.00
64827;BME280;51265;53.972;12.286;2023-04-01T23:11:41;100252.84;;;1.06;100.00
64827;BME280;51265;53.972;12.286;2023-04-01T23:19:52;100268.88;;;1.24;100.00
64827;BME280;51265;53.972;12.286;2023-04-01T23:22:32;100278.81;;;1.35;100.00
64827;BME280;51265;53.972;12.286;2023-04-01T23:28:44;100284.72;;;1.32;100.00
64827;BME280;51265;53.972;12.286;2023-04-01T23:31:41;100296.41;;;1.49;100.00
64827;BME280;51265;53.972;12.286;2023-04-01T23:36:49;100292.81;;;1.61;100.00
64827;BME280;51265;53.972;12.286;2023-04-01T23:41:51;100302.09;;;1.65;100.00
64827;BME280;51265;53.972;12.286;2023-04-01T23:44:19;100308.41;;;1.70;100.00
64827;BME280;51265;53.972;12.286;2023-04-01T23:46:47;100306.44;;;1.66;100.00
64827;BME280;51265;53.972;12.286;2023-04-01T23:49:21;100303.66;;;1.61;100.00
64827;BME280;51265;53.972;12.286;2023-04-01T23:51:55;100296.75;;;1.53;100.00
64827;BME280;51265;53.972;12.286;2023-04-01T23:57:22;100321.16;;;1.70;100.00
